createdAt,value
2019-05-21T00:00:34.989Z,11.90
2019-05-21T00:03:05.833Z,11.90
2019-05-21T00:05:36.502Z,11.90
2019-05-21T00:08:07.174Z,11.90
2019-05-21T00:10:37.823Z,11.90
2019-05-21T00:13:08.611Z,11.90
2019-05-21T00:15:39.262Z,11.90
2019-05-21T00:18:09.794Z,11.90
2019-05-21T00:20:40.563Z,11.90
2019-05-21T00:23:11.422Z,11.80
2019-05-21T00:25:41.931Z,11.80
2019-05-21T00:28:36.456Z,11.80
2019-05-21T00:31:44.157Z,11.80
2019-05-21T00:34:52.904Z,11.80
2019-05-21T00:37:59.670Z,11.80
2019-05-21T00:41:06.748Z,11.80
2019-05-21T00:43:46.124Z,11.80
2019-05-21T00:46:16.743Z,11.80
2019-05-21T00:48:47.523Z,11.80
2019-05-21T00:51:18.462Z,11.80
2019-05-21T00:53:48.972Z,11.70
2019-05-21T00:56:19.504Z,11.70
2019-05-21T00:58:50.127Z,11.60
2019-05-21T01:01:21.098Z,11.70
2019-05-21T01:03:51.898Z,11.60
2019-05-21T01:06:23.902Z,11.60
2019-05-21T01:08:54.592Z,11.70
2019-05-21T01:11:25.119Z,11.70
2019-05-21T01:13:55.815Z,11.80
2019-05-21T01:16:26.528Z,11.70
2019-05-21T01:18:57.235Z,11.60
2019-05-21T01:21:27.977Z,11.70
2019-05-21T01:23:58.561Z,11.60
2019-05-21T01:26:29.206Z,11.60
2019-05-21T01:28:59.753Z,11.60
2019-05-21T01:31:30.332Z,11.60
2019-05-21T01:34:00.859Z,11.60
2019-05-21T01:36:31.553Z,11.60
2019-05-21T01:39:02.542Z,11.60
2019-05-21T01:41:33.589Z,11.60
2019-05-21T01:44:04.363Z,11.60
2019-05-21T01:46:34.998Z,11.60
2019-05-21T01:49:05.821Z,11.60
2019-05-21T01:51:36.448Z,11.60
2019-05-21T01:54:07.118Z,11.60
2019-05-21T01:56:37.695Z,11.60
2019-05-21T01:59:08.297Z,11.60
2019-05-21T02:01:38.804Z,11.60
2019-05-21T02:04:09.598Z,11.60
2019-05-21T02:06:40.435Z,11.50
2019-05-21T02:09:11.107Z,11.60
2019-05-21T02:11:42.128Z,11.50
2019-05-21T02:14:12.865Z,11.50
2019-05-21T02:16:43.505Z,11.50
2019-05-21T02:19:14.156Z,11.60
2019-05-21T02:21:44.778Z,11.60
2019-05-21T02:24:19.206Z,11.60
2019-05-21T02:26:49.891Z,11.50
2019-05-21T02:29:20.529Z,11.50
2019-05-21T02:31:51.204Z,11.50
2019-05-21T02:34:21.977Z,11.50
2019-05-21T02:36:53.063Z,11.50
2019-05-21T02:39:23.907Z,11.50
2019-05-21T02:41:54.598Z,11.50
2019-05-21T02:44:25.106Z,11.40
2019-05-21T02:46:55.874Z,11.40
2019-05-21T02:49:26.507Z,11.30
2019-05-21T02:51:57.029Z,11.30
2019-05-21T02:54:40.343Z,11.30
2019-05-21T02:57:00.010Z,11.30
2019-05-21T02:59:30.575Z,11.20
2019-05-21T03:02:05.711Z,11.20
2019-05-21T03:04:36.462Z,11.20
2019-05-21T03:07:19.731Z,11.20
2019-05-21T03:09:50.859Z,11.20
2019-05-21T03:12:21.652Z,11.20
2019-05-21T03:14:52.185Z,11.20
2019-05-21T03:17:25.473Z,11.10
2019-05-21T03:19:56.231Z,11.10
2019-05-21T03:22:26.889Z,11.10
2019-05-21T03:25:02.085Z,11.00
2019-05-21T03:27:31.032Z,11.00
2019-05-21T03:30:01.682Z,11.00
2019-05-21T03:32:32.407Z,10.90
2019-05-21T03:35:04.370Z,10.90
2019-05-21T03:37:34.948Z,10.90
2019-05-21T03:40:06.910Z,10.90
2019-05-21T03:42:37.422Z,10.90
2019-05-21T03:45:08.669Z,10.90
2019-05-21T03:47:39.246Z,10.90
2019-05-21T03:50:10.028Z,10.90
2019-05-21T03:52:40.591Z,10.90
2019-05-21T03:55:11.487Z,10.80
2019-05-21T03:57:42.153Z,10.80
2019-05-21T04:00:13.563Z,10.80
2019-05-21T04:02:44.271Z,10.80
2019-05-21T04:05:25.967Z,10.80
2019-05-21T04:07:56.586Z,10.80
2019-05-21T04:10:27.238Z,10.80
2019-05-21T04:13:02.150Z,10.80
2019-05-21T04:15:32.859Z,10.70
2019-05-21T04:18:08.098Z,10.70
2019-05-21T04:20:38.615Z,10.70
2019-05-21T04:23:09.311Z,10.70
2019-05-21T04:25:40.015Z,10.70
2019-05-21T04:28:10.606Z,10.70
2019-05-21T04:30:42.565Z,10.70
2019-05-21T04:33:13.082Z,10.70
2019-05-21T04:35:43.686Z,10.70
2019-05-21T04:38:14.671Z,10.70
2019-05-21T04:40:45.172Z,10.70
2019-05-21T04:43:15.824Z,10.70
2019-05-21T04:45:46.451Z,10.60
2019-05-21T04:48:17.151Z,10.60
2019-05-21T04:50:47.834Z,10.60
2019-05-21T04:53:18.458Z,10.60
2019-05-21T04:55:49.029Z,10.60
2019-05-21T04:58:19.547Z,10.60
2019-05-21T05:00:50.230Z,10.60
2019-05-21T05:03:20.813Z,10.60
2019-05-21T05:05:51.379Z,10.60
2019-05-21T05:08:22.251Z,10.60
2019-05-21T05:10:52.910Z,10.60
2019-05-21T05:13:23.400Z,10.60
2019-05-21T05:15:54.109Z,10.60
2019-05-21T05:18:24.859Z,10.60
2019-05-21T05:20:55.750Z,10.60
2019-05-21T05:23:26.323Z,10.60
2019-05-21T05:25:57.199Z,10.60
2019-05-21T05:28:27.758Z,10.60
2019-05-21T05:30:58.391Z,10.60
2019-05-21T05:33:29.076Z,10.60
2019-05-21T05:35:59.659Z,10.60
2019-05-21T05:38:30.602Z,10.60
2019-05-21T05:41:01.430Z,10.60
2019-05-21T05:43:32.143Z,10.60
2019-05-21T05:46:02.843Z,10.60
2019-05-21T05:48:35.054Z,10.60
2019-05-21T05:51:07.632Z,10.60
2019-05-21T05:53:42.591Z,10.60
2019-05-21T05:56:13.435Z,10.60
2019-05-21T05:58:43.934Z,10.60
2019-05-21T06:01:14.662Z,10.60
2019-05-21T06:03:45.286Z,10.60
2019-05-21T06:06:16.235Z,10.60
2019-05-21T06:08:47.272Z,10.70
2019-05-21T06:11:17.872Z,10.70
2019-05-21T06:13:48.471Z,10.70
2019-05-21T06:16:20.303Z,10.70
2019-05-21T06:18:50.986Z,10.80
2019-05-21T06:21:22.035Z,10.80
2019-05-21T06:23:52.623Z,10.90
2019-05-21T06:26:23.415Z,10.90
2019-05-21T06:28:54.008Z,10.90
2019-05-21T06:31:25.000Z,11.00
2019-05-21T06:33:55.717Z,10.90
2019-05-21T06:36:26.558Z,10.90
2019-05-21T06:38:57.580Z,10.90
2019-05-21T06:41:28.339Z,10.90
2019-05-21T06:43:58.955Z,10.90
2019-05-21T06:46:29.900Z,10.90
2019-05-21T06:49:00.834Z,10.90
2019-05-21T06:51:31.522Z,10.80
2019-05-21T06:54:02.370Z,10.80
2019-05-21T06:56:33.304Z,10.80
2019-05-21T06:59:04.442Z,10.80
2019-05-21T07:01:35.239Z,10.80
2019-05-21T07:04:05.928Z,10.80
2019-05-21T07:06:36.665Z,10.80
2019-05-21T07:09:07.328Z,10.70
2019-05-21T07:11:37.851Z,10.80
2019-05-21T07:14:08.529Z,10.70
2019-05-21T07:16:39.445Z,10.80
2019-05-21T07:19:10.163Z,10.70
2019-05-21T07:21:40.977Z,10.70
2019-05-21T07:24:11.738Z,10.70
2019-05-21T07:26:42.845Z,10.70
2019-05-21T07:29:13.602Z,10.70
2019-05-21T07:31:44.275Z,10.60
2019-05-21T07:34:15.090Z,10.60
2019-05-21T07:36:45.717Z,10.60
2019-05-21T07:39:16.479Z,10.60
2019-05-21T07:41:47.245Z,10.60
2019-05-21T07:44:17.922Z,10.60
2019-05-21T07:46:49.632Z,10.50
2019-05-21T07:49:20.547Z,10.50
2019-05-21T07:51:51.220Z,10.50
2019-05-21T07:54:21.733Z,10.50
2019-05-21T07:56:52.628Z,10.50
2019-05-21T07:59:23.328Z,10.50
2019-05-21T08:01:54.335Z,10.60
2019-05-21T08:04:24.829Z,10.60
2019-05-21T08:06:55.573Z,10.60
2019-05-21T08:09:26.259Z,10.60
2019-05-21T08:11:56.775Z,10.60
2019-05-21T08:14:27.269Z,10.60
2019-05-21T08:16:57.833Z,10.60
2019-05-21T08:19:31.179Z,10.60
2019-05-21T08:22:01.251Z,10.60
2019-05-21T08:24:31.852Z,10.50
2019-05-21T08:27:02.726Z,10.50
2019-05-21T08:29:33.439Z,10.60
2019-05-21T08:32:04.409Z,10.50
2019-05-21T08:34:35.030Z,10.50
2019-05-21T08:37:05.599Z,10.50
2019-05-21T08:39:36.393Z,10.50
2019-05-21T08:42:07.152Z,10.60
2019-05-21T08:44:37.891Z,10.60
2019-05-21T08:47:09.800Z,10.60
2019-05-21T08:49:44.097Z,10.60
2019-05-21T08:52:12.762Z,10.60
2019-05-21T08:54:50.829Z,10.60
2019-05-21T08:57:21.578Z,10.60
2019-05-21T08:59:52.375Z,10.60
2019-05-21T09:02:24.891Z,10.60
2019-05-21T09:04:55.544Z,10.60
2019-05-21T09:07:26.220Z,10.60
2019-05-21T09:09:56.972Z,10.60
2019-05-21T09:12:27.678Z,10.70
2019-05-21T09:14:58.312Z,10.70
2019-05-21T09:17:29.312Z,10.70
2019-05-21T09:19:59.808Z,10.80
2019-05-21T09:22:30.604Z,10.70
2019-05-21T09:25:01.366Z,10.70
2019-05-21T09:27:32.682Z,10.80
2019-05-21T09:30:05.032Z,10.90
2019-05-21T09:32:35.878Z,10.90
2019-05-21T09:35:07.716Z,10.90
2019-05-21T09:37:38.620Z,11.00
2019-05-21T09:40:10.163Z,11.00
2019-05-21T09:42:43.210Z,11.00
2019-05-21T09:45:14.051Z,11.10
2019-05-21T09:47:44.861Z,11.10
2019-05-21T09:50:16.802Z,11.20
2019-05-21T09:52:47.494Z,11.30
2019-05-21T09:55:18.444Z,11.30
2019-05-21T09:57:50.739Z,11.50
2019-05-21T10:00:35.973Z,11.40
2019-05-21T10:03:24.702Z,11.50
2019-05-21T10:05:55.529Z,11.40
2019-05-21T10:08:26.225Z,11.40
2019-05-21T10:10:56.817Z,11.40
2019-05-21T10:13:27.431Z,11.50
2019-05-21T10:16:01.221Z,11.50
2019-05-21T10:18:30.534Z,11.40
2019-05-21T10:21:01.355Z,11.40
2019-05-21T10:23:31.917Z,11.40
2019-05-21T10:26:02.928Z,11.50
2019-05-21T10:28:33.570Z,11.40
2019-05-21T10:31:04.620Z,11.50
2019-05-21T10:33:35.320Z,11.50
2019-05-21T10:36:06.591Z,11.50
2019-05-21T10:38:37.328Z,11.60
2019-05-21T10:41:08.208Z,11.60
2019-05-21T10:43:39.174Z,11.60
2019-05-21T10:46:10.142Z,11.60
2019-05-21T10:48:40.779Z,11.70
2019-05-21T10:51:11.672Z,11.70
2019-05-21T10:53:42.836Z,11.70
2019-05-21T10:56:13.491Z,11.70
2019-05-21T10:58:44.274Z,11.70
2019-05-21T11:01:17.114Z,11.80
2019-05-21T11:04:05.781Z,11.80
2019-05-21T11:06:36.506Z,11.80
2019-05-21T11:09:10.090Z,11.70
2019-05-21T11:11:40.952Z,11.70
2019-05-21T11:14:11.801Z,11.80
2019-05-21T11:16:42.379Z,11.80
2019-05-21T11:19:12.971Z,11.90
2019-05-21T11:21:43.822Z,11.80
2019-05-21T11:24:14.619Z,11.80
2019-05-21T11:26:45.369Z,11.80
2019-05-21T11:29:16.074Z,11.80
2019-05-21T11:31:56.418Z,11.80
2019-05-21T11:34:19.027Z,11.80
2019-05-21T11:36:49.955Z,11.80
2019-05-21T11:39:20.711Z,11.80
2019-05-21T11:41:51.844Z,11.90
2019-05-21T11:44:22.577Z,11.90
2019-05-21T11:46:53.459Z,12.00
2019-05-21T11:49:24.115Z,12.00
2019-05-21T11:51:55.060Z,12.00
2019-05-21T11:54:25.574Z,11.90
2019-05-21T11:56:56.270Z,12.00
2019-05-21T11:59:26.951Z,12.00
2019-05-21T12:01:57.630Z,11.90
2019-05-21T12:04:29.381Z,11.90
2019-05-21T12:07:03.208Z,11.80
2019-05-21T12:09:32.311Z,11.90
2019-05-21T12:12:03.090Z,11.90
2019-05-21T12:14:33.825Z,11.90
2019-05-21T12:17:04.587Z,11.80
2019-05-21T12:19:35.343Z,11.80
2019-05-21T12:22:06.039Z,11.90
2019-05-21T12:24:36.734Z,11.90
2019-05-21T12:27:07.720Z,11.90
2019-05-21T12:29:38.355Z,11.90
2019-05-21T12:32:09.060Z,11.90
2019-05-21T12:34:39.656Z,11.90
2019-05-21T12:37:10.695Z,11.90
2019-05-21T12:39:41.350Z,11.80
2019-05-21T12:42:12.053Z,11.80
2019-05-21T12:44:42.538Z,11.70
2019-05-21T12:47:13.314Z,11.80
2019-05-21T12:49:43.907Z,11.80
2019-05-21T12:52:14.742Z,11.80
2019-05-21T12:54:45.462Z,11.70
2019-05-21T12:57:16.315Z,11.70
2019-05-21T12:59:46.920Z,11.70
2019-05-21T13:02:17.700Z,11.70
2019-05-21T13:04:48.688Z,11.60
2019-05-21T13:07:19.497Z,11.70
2019-05-21T13:09:51.658Z,11.60
2019-05-21T13:12:22.239Z,11.70
2019-05-21T13:14:52.875Z,11.70
2019-05-21T13:17:24.646Z,11.60
2019-05-21T13:19:55.572Z,11.70
2019-05-21T13:22:26.514Z,11.70
2019-05-21T13:24:57.291Z,11.70
2019-05-21T13:27:27.986Z,11.70
2019-05-21T13:29:58.477Z,11.70
2019-05-21T13:32:29.188Z,11.70
2019-05-21T13:34:59.811Z,11.70
2019-05-21T13:37:30.528Z,11.70
2019-05-21T13:40:01.206Z,11.70
2019-05-21T13:42:32.022Z,11.80
2019-05-21T13:45:02.699Z,11.80
2019-05-21T13:47:34.503Z,11.80
2019-05-21T13:50:07.568Z,11.80
2019-05-21T13:52:38.579Z,11.80
2019-05-21T13:55:09.594Z,11.70
2019-05-21T13:57:40.616Z,11.60
2019-05-21T14:00:14.041Z,11.60
2019-05-21T14:02:44.887Z,11.70
2019-05-21T14:05:16.253Z,11.70
2019-05-21T14:07:46.847Z,11.60
2019-05-21T14:10:20.835Z,11.60
2019-05-21T14:12:49.638Z,11.60
2019-05-21T14:15:20.479Z,11.60
2019-05-21T14:17:51.088Z,11.60
2019-05-21T14:20:21.850Z,11.60
2019-05-21T14:22:52.456Z,11.60
2019-05-21T14:25:23.083Z,11.70
2019-05-21T14:27:53.767Z,11.60
2019-05-21T14:30:24.547Z,11.60
2019-05-21T14:32:55.488Z,11.60
2019-05-21T14:35:26.067Z,11.60
2019-05-21T14:37:56.951Z,11.50
2019-05-21T14:40:32.101Z,11.50
2019-05-21T14:43:00.874Z,11.50
2019-05-21T14:45:34.285Z,11.50
2019-05-21T14:48:04.435Z,11.50
2019-05-21T14:50:34.973Z,11.50
2019-05-21T14:53:05.807Z,11.50
2019-05-21T14:55:36.430Z,11.50
2019-05-21T14:58:07.631Z,11.50
2019-05-21T15:00:38.454Z,11.50
2019-05-21T15:03:23.922Z,11.50
2019-05-21T15:05:41.550Z,11.40
2019-05-21T15:08:12.225Z,11.40
2019-05-21T15:10:48.340Z,11.40
2019-05-21T15:13:14.999Z,11.40
2019-05-21T15:15:45.775Z,11.40
2019-05-21T15:18:21.275Z,11.30
2019-05-21T15:20:50.333Z,11.30
2019-05-21T15:23:21.027Z,11.30
2019-05-21T15:25:52.041Z,11.30
2019-05-21T15:28:22.670Z,11.20
2019-05-21T15:30:53.588Z,11.30
2019-05-21T15:33:25.247Z,11.30
2019-05-21T15:35:55.874Z,11.30
2019-05-21T15:38:26.510Z,11.20
2019-05-21T15:41:09.385Z,11.20
2019-05-21T15:43:29.658Z,11.30
2019-05-21T15:46:00.365Z,11.30
2019-05-21T15:48:30.876Z,11.20
2019-05-21T15:51:01.484Z,11.20
2019-05-21T15:53:32.200Z,11.20
2019-05-21T15:56:02.694Z,11.20
2019-05-21T15:58:33.419Z,11.10
2019-05-21T16:01:04.446Z,11.10
2019-05-21T16:03:35.263Z,11.10
2019-05-21T16:06:06.016Z,11.10
2019-05-21T16:08:37.011Z,11.10
2019-05-21T16:11:07.807Z,11.10
2019-05-21T16:13:38.434Z,11.10
2019-05-21T16:16:09.182Z,11.00
2019-05-21T16:18:39.770Z,11.00
2019-05-21T16:21:10.714Z,11.00
2019-05-21T16:23:41.483Z,11.00
2019-05-21T16:26:12.551Z,11.00
2019-05-21T16:28:43.177Z,11.00
2019-05-21T16:31:14.195Z,11.00
2019-05-21T16:33:45.148Z,11.10
2019-05-21T16:36:15.910Z,11.10
2019-05-21T16:38:46.768Z,11.10
2019-05-21T16:41:17.423Z,11.10
2019-05-21T16:43:48.187Z,11.10
2019-05-21T16:46:18.850Z,11.10
2019-05-21T16:48:50.023Z,11.10
2019-05-21T16:51:20.769Z,11.00
2019-05-21T16:53:54.051Z,11.10
2019-05-21T16:56:24.817Z,11.10
2019-05-21T16:58:55.319Z,11.10
2019-05-21T17:01:26.136Z,11.10
2019-05-21T17:03:59.999Z,11.10
2019-05-21T17:06:29.288Z,11.10
2019-05-21T17:08:59.922Z,11.10
2019-05-21T17:11:30.628Z,11.10
2019-05-21T17:14:01.450Z,11.10
2019-05-21T17:16:32.026Z,11.10
2019-05-21T17:19:02.922Z,11.10
2019-05-21T17:21:33.974Z,11.10
2019-05-21T17:24:05.131Z,11.10
2019-05-21T17:26:35.900Z,11.10
2019-05-21T17:29:06.730Z,11.10
2019-05-21T17:31:37.574Z,11.10
2019-05-21T17:34:08.647Z,11.10
2019-05-21T17:36:39.178Z,11.10
2019-05-21T17:39:10.484Z,11.10
2019-05-21T17:41:41.198Z,11.10
2019-05-21T17:44:11.962Z,11.10
2019-05-21T17:46:42.646Z,11.10
2019-05-21T17:49:13.525Z,11.10
2019-05-21T17:51:44.205Z,11.10
2019-05-21T17:54:14.782Z,11.10
2019-05-21T17:56:46.534Z,11.10
2019-05-21T17:59:20.178Z,11.20
2019-05-21T18:01:50.810Z,11.20
2019-05-21T18:04:22.271Z,11.20
2019-05-21T18:06:53.566Z,11.10
2019-05-21T18:09:24.457Z,11.10
2019-05-21T18:11:55.548Z,11.10
2019-05-21T18:14:26.481Z,11.10
2019-05-21T18:16:57.049Z,11.10
2019-05-21T18:19:28.342Z,11.10
2019-05-21T18:21:59.746Z,11.10
2019-05-21T18:24:30.525Z,11.10
2019-05-21T18:27:01.275Z,11.10
2019-05-21T18:29:32.039Z,11.10
2019-05-21T18:32:02.723Z,11.10
2019-05-21T18:34:33.558Z,11.10
2019-05-21T18:37:04.368Z,11.10
2019-05-21T18:39:36.100Z,11.10
2019-05-21T18:42:21.093Z,11.20
2019-05-21T18:44:39.328Z,11.10
2019-05-21T18:47:09.957Z,11.10
2019-05-21T18:49:40.622Z,11.20
2019-05-21T18:52:11.401Z,11.20
2019-05-21T18:54:42.143Z,11.20
2019-05-21T18:57:12.894Z,11.20
2019-05-21T18:59:43.512Z,11.20
2019-05-21T19:02:14.864Z,11.20
2019-05-21T19:04:45.619Z,11.30
2019-05-21T19:07:17.932Z,11.30
2019-05-21T19:09:48.869Z,11.20
2019-05-21T19:12:20.511Z,11.30
2019-05-21T19:14:51.442Z,11.20
2019-05-21T19:17:34.720Z,11.20
2019-05-21T19:19:55.013Z,11.20
2019-05-21T19:22:27.592Z,11.20
2019-05-21T19:24:57.910Z,11.20
2019-05-21T19:27:28.744Z,11.30
2019-05-21T19:29:59.380Z,11.20
2019-05-21T19:32:30.343Z,11.20
2019-05-21T19:35:01.300Z,11.20
2019-05-21T19:37:32.121Z,11.20
2019-05-21T19:40:02.843Z,11.20
2019-05-21T19:42:33.563Z,11.30
2019-05-21T19:45:07.215Z,11.20
2019-05-21T19:47:38.947Z,11.20
2019-05-21T19:50:09.989Z,11.20
2019-05-21T19:52:40.644Z,11.20
2019-05-21T19:55:12.519Z,11.10
2019-05-21T19:57:44.073Z,11.20
2019-05-21T20:00:18.087Z,11.10
2019-05-21T20:02:49.123Z,11.10
2019-05-21T20:05:19.938Z,11.10
2019-05-21T20:07:50.880Z,11.10
2019-05-21T20:10:21.587Z,11.10
2019-05-21T20:12:52.518Z,11.10
2019-05-21T20:15:23.330Z,11.10
2019-05-21T20:18:06.633Z,11.10
2019-05-21T20:20:27.698Z,11.10
2019-05-21T20:22:58.470Z,11.10
2019-05-21T20:25:30.058Z,11.10
2019-05-21T20:28:01.912Z,11.10
2019-05-21T20:30:32.673Z,11.10
2019-05-21T20:33:04.342Z,11.10
2019-05-21T20:35:37.179Z,11.10
2019-05-21T20:38:07.957Z,11.10
2019-05-21T20:40:38.511Z,11.10
2019-05-21T20:43:10.961Z,11.10
2019-05-21T20:45:43.806Z,11.10
2019-05-21T20:48:14.838Z,11.10
2019-05-21T20:50:45.723Z,11.10
2019-05-21T20:53:16.551Z,11.10
2019-05-21T20:55:48.106Z,11.10
2019-05-21T20:58:18.789Z,11.10
2019-05-21T21:00:57.667Z,11.10
2019-05-21T21:03:29.407Z,11.10
2019-05-21T21:06:00.906Z,11.10
2019-05-21T21:08:33.485Z,11.10
2019-05-21T21:11:05.071Z,11.10
2019-05-21T21:13:36.936Z,11.10
2019-05-21T21:16:07.680Z,11.10
2019-05-21T21:18:38.273Z,11.10
2019-05-21T21:21:09.085Z,11.10
2019-05-21T21:23:40.989Z,11.10
2019-05-21T21:26:12.020Z,11.10
2019-05-21T21:28:42.871Z,11.10
2019-05-21T21:31:13.876Z,11.10
2019-05-21T21:33:45.523Z,11.10
2019-05-21T21:36:16.190Z,11.00
2019-05-21T21:38:48.392Z,11.10
2019-05-21T21:41:19.651Z,11.00
2019-05-21T21:43:50.729Z,11.00
2019-05-21T21:46:21.510Z,11.00
2019-05-21T21:48:52.364Z,11.00
2019-05-21T21:51:23.006Z,11.00
2019-05-21T21:53:54.622Z,11.00
2019-05-21T21:56:26.410Z,11.00
2019-05-21T21:58:56.972Z,11.00
2019-05-21T22:01:32.301Z,11.00
2019-05-21T22:04:05.322Z,11.00
2019-05-21T22:06:39.647Z,11.00
2019-05-21T22:09:12.422Z,11.00
2019-05-21T22:11:43.458Z,10.90
2019-05-21T22:14:14.348Z,10.90
2019-05-21T22:16:45.431Z,10.90
2019-05-21T22:19:17.798Z,10.90
2019-05-21T22:21:48.778Z,10.90
2019-05-21T22:24:19.755Z,10.90
2019-05-21T22:26:50.910Z,10.90
2019-05-21T22:29:21.906Z,10.90
2019-05-21T22:31:52.844Z,10.90
2019-05-21T22:34:24.875Z,10.90
2019-05-21T22:36:55.692Z,10.90
2019-05-21T22:39:27.698Z,10.90
2019-05-21T22:41:58.571Z,10.90
2019-05-21T22:44:29.230Z,10.90
2019-05-21T22:47:00.456Z,10.90
2019-05-21T22:49:33.876Z,10.90
2019-05-21T22:52:04.531Z,10.90
2019-05-21T22:54:35.486Z,10.90
2019-05-21T22:57:06.302Z,10.90
2019-05-21T22:59:37.015Z,10.90
2019-05-21T23:02:09.637Z,10.90
2019-05-21T23:04:40.237Z,10.90
2019-05-21T23:07:12.853Z,10.80
2019-05-21T23:09:43.733Z,10.90
2019-05-21T23:12:14.623Z,10.80
2019-05-21T23:14:45.505Z,10.90
2019-05-21T23:17:17.844Z,10.90
2019-05-21T23:20:11.476Z,10.90
2019-05-21T23:22:45.214Z,10.90
2019-05-21T23:25:17.352Z,10.90
2019-05-21T23:27:49.304Z,10.90
2019-05-21T23:30:20.233Z,10.90
2019-05-21T23:32:51.747Z,10.90
2019-05-21T23:35:22.487Z,10.90
2019-05-21T23:37:53.586Z,10.90
2019-05-21T23:40:25.876Z,10.80
2019-05-21T23:42:56.666Z,10.80
2019-05-21T23:45:27.583Z,10.80
2019-05-21T23:47:58.272Z,10.80
2019-05-21T23:50:29.146Z,10.80
2019-05-21T23:53:01.682Z,10.80
2019-05-21T23:55:32.512Z,10.80
2019-05-21T23:58:04.191Z,10.80
